Flight Track Log - Related Links

Times and Time Zones

All times are in EST time to prevent confusion due to time zone crossing. See the GJS6221 flight status page for this flight to view local times or setup timezone preferences in your user account.

Time Position Orientation Groundspeed Altitude Reporting Facility
EST Latitude Longitude Course Direction KTS MPH feet Rate Location/Type
Thu 04:27:11 PM 40.7500 -73.8333 214° Southwest 186 214 2,700  Level New York TRACON
Thu 04:29:31 PM 40.6164 -73.8906 198° South 239 275 8,200 2,340 Climbing New York Center
Thu 04:30:31 PM 40.5672 -73.9319 213° Southwest 244 281 10,500 1,500 Climbing New York Center
Thu 04:31:31 PM 40.4953 -73.9750 204° Southwest 254 292 11,200 750 Climbing New York Center
Thu 04:32:00 PM 40.4449 -74.1956 214° Southwest  Level Estimated
Thu 04:32:31 PM 40.4211 -74.0178 204° Southwest 296 341 12,000  Level New York Center
Thu 04:34:18 PM 40.2667 -74.1044 203° Southwest 327 376 15,000 1,607 Climbing Washington Center
Thu 04:35:19 PM 40.1778 -74.1553 204° Southwest 341 392 16,500 1,475 Climbing Washington Center
Thu 04:36:20 PM 40.0953 -74.2247 213° Southwest 352 405 18,000 1,563 Climbing Washington Center
Thu 04:37:18 PM 40.0211 -74.3075 221° Southwest 352 405 19,600 1,932 Climbing Washington Center
Thu 04:38:18 PM 39.9492 -74.3900 221° Southwest 357 411 21,800 2,033 Climbing Washington Center
Thu 04:39:19 PM 39.8811 -74.4642 220° Southwest 346 398 23,700 1,450 Climbing Washington Center
Thu 04:40:18 PM 39.8172 -74.5381 222° Southwest 329 379 24,700 1,008 Climbing Washington Center
Thu 04:41:18 PM 39.7492 -74.6172 222° Southwest 329 379 25,700 1,000 Climbing Washington Center
Thu 04:42:18 PM 39.6831 -74.6908 221° Southwest 329 379 26,700 984 Climbing Washington Center
Thu 04:43:20 PM 39.6147 -74.7644 220° Southwest 329 379 27,700 1,000 Climbing Washington Center
Thu 04:44:18 PM 39.5486 -74.8406 222° Southwest 329 379 28,700 958 Climbing Washington Center
Thu 04:45:19 PM 39.4825 -74.9139 221° Southwest 329 379 29,600 793 Climbing Washington Center
Thu 04:46:19 PM 39.4161 -74.9872 220° Southwest 329 379 30,300 694 Climbing Washington Center
Thu 04:47:20 PM 39.3456 -75.0628 220° Southwest 329 379 31,000 605 Climbing Washington Center
Thu 04:48:18 PM 39.2708 -75.1225 212° Southwest 329 379 31,500 508 Climbing Washington Center
Thu 04:49:18 PM 39.1814 -75.1658 201° Southwest 334 384 32,000 496 Climbing Washington Center
Thu 04:50:19 PM 39.0856 -75.1986 195° South 349 402 32,500 492 Climbing Washington Center
Thu 04:51:20 PM 38.9961 -75.2417 201° Southwest 354 407 33,000 500 Climbing Washington Center
Thu 04:52:19 PM 38.9044 -75.2822 199° South 354 407 33,500 550 Climbing Washington Center
Thu 04:53:20 PM 38.8108 -75.3225 199° South 354 407 34,100 756 Climbing Washington Center
Thu 04:54:18 PM 38.7192 -75.3547 195° South 349 402 35,000 712 Climbing Washington Center
Thu 04:55:18 PM 38.6294 -75.3950 199° South 344 396 35,500 500 Climbing Washington Center
Thu 04:56:18 PM 38.5378 -75.4350 199° South 344 396 36,000 496 Climbing Washington Center
Thu 04:57:19 PM 38.4461 -75.4725 198° South 344 396 36,500 492 Climbing Washington Center
Thu 04:58:20 PM 38.3567 -75.5122 199° South 344 396 37,000 508 Climbing Washington Center
Thu 04:59:17 PM 38.2711 -75.5786 211° Southwest 338 389 37,500 508 Climbing Washington Center
Thu 05:00:18 PM 38.1981 -75.6472 216° Southwest 333 383 38,000 246 Climbing Washington Center
Thu 05:01:19 PM 38.1272 -75.7158 217° Southwest 328 377 38,000  Level Washington Center
Thu 05:02:20 PM 38.0542 -75.7842 216° Southwest 333 383 38,000  Level Washington Center
Thu 05:03:18 PM 37.9769 -75.8553 216° Southwest 333 383 38,000  Level Washington Center
Thu 05:04:19 PM 37.9036 -75.9233 216° Southwest 338 389 38,000  Level Washington Center
Thu 05:05:19 PM 37.8264 -75.9967 217° Southwest 338 389 38,000  Level Washington Center
Thu 05:06:18 PM 37.7636 -76.0594 218° Southwest 338 389 38,000  Level Washington Center
Thu 05:07:19 PM 37.6881 -76.1297 216° Southwest 338 389 38,000  Level Washington Center
Thu 05:08:20 PM 37.6064 -76.2000 214° Southwest 333 383 38,000  Level Washington Center
Thu 05:09:18 PM 37.5311 -76.2675 215° Southwest 333 383 38,000  Level Washington Center
Thu 05:10:19 PM 37.4575 -76.3375 217° Southwest 333 383 38,000  Level Washington Center
Thu 05:11:19 PM 37.3819 -76.4047 215° Southwest 338 389 38,000  Level Washington Center
Thu 05:12:19 PM 37.3106 -76.4744 218° Southwest 338 389 38,000  Level Washington Center
Thu 05:13:20 PM 37.2392 -76.5442 218° Southwest 338 389 38,000  Level Washington Center
Thu 05:14:18 PM 37.1678 -76.6161 219° Southwest 338 389 38,000  Level Washington Center
Thu 05:15:18 PM 37.0961 -76.6856 218° Southwest 338 389 38,000  Level Washington Center
Thu 05:16:19 PM 37.0225 -76.7572 218° Southwest 338 389 38,000  Level Washington Center
Thu 05:17:19 PM 36.9508 -76.8264 218° Southwest 338 389 38,000  Level Washington Center
Thu 05:18:20 PM 36.8792 -76.8981 219° Southwest 338 389 38,000  Level Washington Center
Thu 05:19:18 PM 36.8075 -76.9694 219° Southwest 338 389 38,000  Level Washington Center
Thu 05:20:18 PM 36.7356 -77.0408 219° Southwest 338 389 38,000  Level Washington Center
Thu 05:21:20 PM 36.6617 -77.1092 217° Southwest 338 389 38,000  Level Washington Center
Thu 05:22:21 PM 36.5900 -77.1803 219° Southwest 338 389 38,000  Level Washington Center
Thu 05:23:19 PM 36.5181 -77.2511 218° Southwest 338 389 38,000  Level Washington Center
Thu 05:24:20 PM 36.4442 -77.3194 217° Southwest 338 389 38,000  Level Washington Center
Thu 05:25:19 PM 36.3742 -77.3900 219° Southwest 332 382 38,000  Level Washington Center
Thu 05:26:20 PM 36.3022 -77.4581 217° Southwest 332 382 38,000  Level Washington Center
Thu 05:27:18 PM 36.2408 -77.5183 218° Southwest 332 382 38,000  Level Washington Center
Thu 05:28:19 PM 36.1686 -77.5861 217° Southwest 332 382 38,000  Level Washington Center
Thu 05:29:21 PM 36.0944 -77.6561 217° Southwest 332 382 38,000  Level Washington Center
Thu 05:30:18 PM 36.0244 -77.7261 219° Southwest 332 382 38,000  Level Washington Center
Thu 05:31:19 PM 35.9503 -77.7933 216° Southwest 332 382 38,000  Level Washington Center
Thu 05:32:20 PM 35.8781 -77.8606 217° Southwest 332 382 38,000  Level Washington Center
Thu 05:33:18 PM 35.8036 -77.9303 217° Southwest 332 382 38,000  Level Washington Center
Thu 05:34:19 PM 35.7314 -77.9972 217° Southwest 332 382 38,000  Level Washington Center
Thu 05:35:20 PM 35.6569 -78.0692 218° Southwest 332 382 38,000  Level Washington Center
Thu 05:36:18 PM 35.5844 -78.1333 216° Southwest 332 382 38,000  Level Washington Center
Thu 05:37:20 PM 35.5100 -78.2050 218° Southwest 332 382 38,000  Level Washington Center
Thu 05:38:20 PM 35.4292 -78.2786 217° Southwest 337 388 38,000  Level Washington Center
Thu 05:39:18 PM 35.3503 -78.3500 216° Southwest 337 388 38,000  Level Washington Center
Thu 05:40:19 PM 35.2756 -78.4186 217° Southwest 342 394 38,000  Level Washington Center
Thu 05:41:19 PM 35.2031 -78.4872 218° Southwest 342 394 38,000  Level Washington Center
Thu 05:42:18 PM 35.1283 -78.5583 218° Southwest 342 394 38,000  Level Washington Center
Thu 05:43:20 PM 35.0514 -78.6264 216° Southwest 342 394 38,000  Level Washington Center
Thu 05:44:18 PM 34.9767 -78.6972 218° Southwest 347 399 38,000  Level Washington Center
Thu 05:47:36 PM 34.7294 -78.9217 217° Southwest 354 407 38,000  Level Jacksonville Center
Thu 05:48:36 PM 34.6544 -78.9908 217° Southwest 354 407 38,000  Level Jacksonville Center
Thu 05:49:37 PM 34.5750 -79.0597 216° Southwest 354 407 38,000  Level Jacksonville Center
Thu 05:50:37 PM 34.4922 -79.1442 220° Southwest 354 407 38,000  Level Jacksonville Center
Thu 05:51:37 PM 34.4150 -79.2156 217° Southwest 354 407 38,000  Level Jacksonville Center
Thu 05:52:37 PM 34.3356 -79.2867 216° Southwest 359 413 38,000  Level Jacksonville Center
Thu 05:53:37 PM 34.2564 -79.3553 216° Southwest 359 413 38,000  Level Jacksonville Center
Thu 05:54:37 PM 34.1931 -79.4081 215° Southwest 353 406 38,000  Level Jacksonville Center
Thu 05:55:36 PM 34.1033 -79.4869 216° Southwest 346 398 38,000  Level Jacksonville Center
Thu 05:56:36 PM 34.0239 -79.5600 217° Southwest 354 407 38,000  Level Jacksonville Center
Thu 05:57:37 PM 33.9464 -79.6256 215° Southwest 354 407 38,000 -50 Level Jacksonville Center
Thu 05:58:36 PM 33.8669 -79.6961 216° Southwest 354 407 37,900 -600 Descending Jacksonville Center
Thu 05:59:37 PM 33.7914 -79.7664 218° Southwest 354 407 36,800 -1,537 Descending Jacksonville Center
Thu 06:00:37 PM 33.7178 -79.8314 216° Southwest 349 402 34,800 -2,000 Descending Jacksonville Center
Thu 06:01:37 PM 33.6381 -79.9014 216° Southwest 349 402 32,800 -2,017 Descending Jacksonville Center
Thu 06:02:36 PM 33.5586 -79.9739 217° Southwest 356 410 30,800 -2,000 Descending Jacksonville Center
Thu 06:03:37 PM 33.4786 -80.0439 216° Southwest 362 417 28,800 -1,983 Descending Jacksonville Center
Thu 06:04:37 PM 33.3989 -80.1111 215° Southwest 362 417 26,800 -2,000 Descending Jacksonville Center
Thu 06:05:37 PM 33.3211 -80.1806 217° Southwest 351 404 24,800 -1,950 Descending Jacksonville Center
Thu 06:06:37 PM 33.2453 -80.2475 216° Southwest 351 404 22,900 -2,000 Descending Jacksonville Center
Thu 06:07:37 PM 33.1672 -80.3119 215° Southwest 351 404 20,800 -1,950 Descending Jacksonville Center
Thu 06:08:37 PM 33.0956 -80.3783 218° Southwest 351 404 19,000 -1,750 Descending Jacksonville Center
Thu 06:09:37 PM 33.0236 -80.4375 215° Southwest 356 410 17,300 -1,550 Descending Jacksonville Center
Thu 06:10:37 PM 32.9478 -80.5014 215° Southwest 351 404 15,900 -1,450 Descending Jacksonville Center
Thu 06:11:37 PM 32.8736 -80.5653 216° Southwest 351 404 14,400 -1,500 Descending Jacksonville Center
Thu 06:12:37 PM 32.8017 -80.6286 217° Southwest 346 398 12,900 -1,500 Descending Jacksonville Center
Thu 06:13:37 PM 32.7278 -80.6922 216° Southwest 335 386 11,400 -1,350 Descending Jacksonville Center
Thu 06:14:37 PM 32.6681 -80.7431 216° Southwest 310 357 10,200 -1,450 Descending Jacksonville Center
Thu 06:15:37 PM 32.6147 -80.7914 217° Southwest 256 295 8,500 -1,100 Descending Jacksonville Center
Thu 06:16:37 PM 32.5506 -80.8322 208° Southwest 236 272 8,000 -252 Descending Jacksonville Center
Thu 06:17:36 PM 32.4947 -80.8631 205° Southwest 241 277 8,000  Level Jacksonville Center
Thu 06:18:37 PM 32.4286 -80.9014 206° Southwest 246 283 8,000 -50 Level Jacksonville Center
Thu 06:19:37 PM 32.3644 -80.9372 205° Southwest 253 291 7,900 -100 Descending Jacksonville Center
Thu 06:21:00 PM 32.2790 -81.0543 220° Southwest  Level FlightAware Approximate
Thu 06:28:00 PM 32.1276 -81.2021 270° West  Level Estimated
Thu 06:29:00 PM 32.1276 -81.2021 270° West  Level Estimated
Thu 06:30:00 PM 32.1276 -81.2021 270° West  Level Estimated
Thu 06:31:00 PM 32.1276 -81.2021 270° West  Level Estimated
Thu 06:32:00 PM 32.1276 -81.2021 270° West  Level Estimated
Thu 06:33:00 PM 32.1276 -81.2021 270° West  Level Estimated
Thu 06:34:00 PM 32.1276 -81.2021 270° West  Level Estimated
Thu 06:35:00 PM 32.1276 -81.2021 270° West  Level Estimated
Thu 06:36:00 PM 32.1276 -81.2021 270° West  Level Estimated
Thu 06:37:00 PM 32.1276 -81.2021 270° West  Level Estimated
Thu 06:38:00 PM 32.1276 -81.2021 270° West  Level Estimated
Thu 06:39:00 PM 32.1276 -81.2021 270° West  Level Estimated
Thu 06:40:00 PM 32.1276 -81.2021 270° West  Level Estimated
Thu 06:41:00 PM 32.1276 -81.2021 270° West  Level Estimated

Login

Don't have an account? Register now (free) for customized features, flight alerts, and more!